createdAt,value
2018-10-04T00:00:43.017Z,100.00
2018-10-04T00:03:11.515Z,99.71
2018-10-04T00:05:40.049Z,99.27
2018-10-04T00:08:08.554Z,98.59
2018-10-04T00:10:37.120Z,98.71
2018-10-04T00:13:05.686Z,99.89
2018-10-04T00:15:34.229Z,100.00
2018-10-04T00:18:02.916Z,100.00
2018-10-04T00:20:31.457Z,100.00
2018-10-04T00:23:00.029Z,100.00
2018-10-04T00:25:28.668Z,100.00
2018-10-04T00:27:57.244Z,100.00
2018-10-04T00:30:25.773Z,98.37
2018-10-04T00:32:54.277Z,99.44
2018-10-04T00:35:22.811Z,99.98
2018-10-04T00:37:51.321Z,100.00
2018-10-04T00:40:19.860Z,100.00
2018-10-04T00:42:48.371Z,100.00
2018-10-04T00:45:16.941Z,100.00
2018-10-04T00:47:45.448Z,100.00
2018-10-04T00:50:14.092Z,100.00
2018-10-04T00:52:42.593Z,100.00
2018-10-04T00:55:11.127Z,99.35
2018-10-04T00:57:39.629Z,98.66
2018-10-04T01:00:08.160Z,100.00
2018-10-04T01:02:36.649Z,100.00
2018-10-04T01:05:05.217Z,100.00
2018-10-04T01:07:34.235Z,100.00
2018-10-04T01:10:02.757Z,100.00
2018-10-04T01:12:31.297Z,100.00
2018-10-04T01:14:59.797Z,100.00
2018-10-04T01:17:28.327Z,100.00
2018-10-04T01:19:56.829Z,100.00
2018-10-04T01:22:31.524Z,100.00
2018-10-04T01:25:00.113Z,100.00
2018-10-04T01:27:28.693Z,100.00
2018-10-04T01:29:57.247Z,100.00
2018-10-04T01:32:25.945Z,100.00
2018-10-04T01:34:54.503Z,100.00
2018-10-04T01:37:23.135Z,100.00
2018-10-04T01:39:51.677Z,100.00
2018-10-04T01:42:20.277Z,100.00
2018-10-04T01:44:48.825Z,100.00
2018-10-04T01:47:17.404Z,100.00
2018-10-04T01:49:45.948Z,100.00
2018-10-04T01:52:14.528Z,100.00
2018-10-04T01:54:43.085Z,100.00
2018-10-04T01:57:11.669Z,100.00
2018-10-04T01:59:40.228Z,100.00
2018-10-04T02:02:08.808Z,100.00
2018-10-04T02:04:37.353Z,100.00
2018-10-04T02:07:05.933Z,100.00
2018-10-04T02:09:34.480Z,100.00
2018-10-04T02:12:03.096Z,100.00
2018-10-04T02:14:31.625Z,100.00
2018-10-04T02:17:00.207Z,100.00
2018-10-04T02:19:28.736Z,100.00
2018-10-04T02:21:57.321Z,100.00
2018-10-04T02:24:25.872Z,100.00
2018-10-04T02:26:54.453Z,99.86
2018-10-04T02:29:23.000Z,100.00
2018-10-04T02:31:51.569Z,100.00
2018-10-04T02:34:20.113Z,100.00
2018-10-04T02:36:48.690Z,100.00
2018-10-04T02:39:17.240Z,100.00
2018-10-04T02:41:45.808Z,99.41
2018-10-04T02:44:14.343Z,99.83
2018-10-04T02:46:42.917Z,100.00
2018-10-04T02:49:11.782Z,100.00
2018-10-04T02:51:40.472Z,100.00
2018-10-04T02:54:11.369Z,100.00
2018-10-04T02:56:45.165Z,100.00
2018-10-04T02:59:13.713Z,100.00
2018-10-04T03:01:42.249Z,100.00
2018-10-04T03:04:10.828Z,100.00
2018-10-04T03:06:39.385Z,100.00
2018-10-04T03:09:07.992Z,100.00
2018-10-04T03:11:36.550Z,100.00
2018-10-04T03:14:05.148Z,100.00
2018-10-04T03:16:33.709Z,100.00
2018-10-04T03:19:02.305Z,100.00
2018-10-04T03:21:30.874Z,99.58
2018-10-04T03:23:59.457Z,100.00
2018-10-04T03:26:28.014Z,100.00
2018-10-04T03:28:56.597Z,100.00
2018-10-04T03:31:25.171Z,100.00
2018-10-04T03:33:53.749Z,100.00
2018-10-04T03:36:22.298Z,100.00
2018-10-04T03:38:50.903Z,100.00
2018-10-04T03:41:19.444Z,100.00
2018-10-04T03:43:48.196Z,100.00
2018-10-04T03:46:17.056Z,100.00
2018-10-04T03:48:45.627Z,100.00
2018-10-04T03:51:14.189Z,100.00
2018-10-04T03:53:42.780Z,100.00
2018-10-04T03:56:11.336Z,100.00
2018-10-04T03:58:39.904Z,100.00
2018-10-04T04:01:08.741Z,100.00
2018-10-04T04:03:37.337Z,100.00
2018-10-04T04:06:05.909Z,100.00
2018-10-04T04:08:35.065Z,100.00
2018-10-04T04:11:03.612Z,100.00
2018-10-04T04:13:32.209Z,100.00
2018-10-04T04:16:00.764Z,100.00
2018-10-04T04:18:29.340Z,100.00
2018-10-04T04:20:57.908Z,100.00
2018-10-04T04:23:26.516Z,100.00
2018-10-04T04:25:55.072Z,100.00
2018-10-04T04:28:23.662Z,100.00
2018-10-04T04:30:52.285Z,100.00
2018-10-04T04:33:20.825Z,100.00
2018-10-04T04:35:49.383Z,100.00
2018-10-04T04:38:17.953Z,100.00
2018-10-04T04:40:46.518Z,100.00
2018-10-04T04:43:15.145Z,100.00
2018-10-04T04:45:43.719Z,100.00
2018-10-04T04:48:12.281Z,100.00
2018-10-04T04:50:40.873Z,100.00
2018-10-04T04:53:34.839Z,100.00
2018-10-04T04:56:03.385Z,100.00
2018-10-04T04:58:31.949Z,100.00
2018-10-04T05:01:00.724Z,100.00
2018-10-04T05:03:29.285Z,100.00
2018-10-04T05:05:57.944Z,100.00
2018-10-04T05:08:26.492Z,100.00
2018-10-04T05:10:55.076Z,100.00
2018-10-04T05:13:23.637Z,100.00
2018-10-04T05:15:52.259Z,100.00
2018-10-04T05:18:20.823Z,100.00
2018-10-04T05:20:49.488Z,100.00
2018-10-04T05:23:18.132Z,100.00
2018-10-04T05:25:46.724Z,100.00
2018-10-04T05:28:15.289Z,100.00
2018-10-04T05:30:43.889Z,100.00
2018-10-04T05:33:12.445Z,100.00
2018-10-04T05:35:41.822Z,100.00
2018-10-04T05:38:10.377Z,100.00
2018-10-04T05:40:38.984Z,100.00
2018-10-04T05:43:07.847Z,100.00
2018-10-04T05:45:36.437Z,100.00
2018-10-04T05:48:05.008Z,100.00
2018-10-04T05:50:33.615Z,100.00
2018-10-04T05:53:02.296Z,100.00
2018-10-04T05:55:30.834Z,100.00
2018-10-04T05:57:59.482Z,100.00
2018-10-04T06:00:36.177Z,100.00
2018-10-04T06:03:05.251Z,100.00
2018-10-04T06:05:33.871Z,100.00
2018-10-04T06:08:02.766Z,100.00
2018-10-04T06:10:32.004Z,100.00
2018-10-04T06:13:00.565Z,100.00
2018-10-04T06:15:29.249Z,99.79
2018-10-04T06:17:57.757Z,100.00
2018-10-04T06:20:35.029Z,100.00
2018-10-04T06:23:03.637Z,99.51
2018-10-04T06:25:32.221Z,100.00
2018-10-04T06:28:00.950Z,100.00
2018-10-04T06:30:30.228Z,100.00
2018-10-04T06:32:58.784Z,100.00
2018-10-04T06:35:27.425Z,100.00
2018-10-04T06:37:55.973Z,100.00
2018-10-04T06:40:27.965Z,100.00
2018-10-04T06:42:56.641Z,100.00
2018-10-04T06:45:25.376Z,100.00
2018-10-04T06:47:54.005Z,99.99
2018-10-04T06:50:22.821Z,99.86
2018-10-04T06:52:51.426Z,100.00
2018-10-04T06:55:20.190Z,100.00
2018-10-04T06:57:48.798Z,100.00
2018-10-04T07:00:17.693Z,100.00
2018-10-04T07:02:48.975Z,100.00
2018-10-04T07:05:17.740Z,100.00
2018-10-04T07:07:46.281Z,100.00
2018-10-04T07:10:15.425Z,100.00
2018-10-04T07:12:44.134Z,100.00
2018-10-04T07:15:13.164Z,100.00
2018-10-04T07:17:41.745Z,100.00
2018-10-04T07:20:17.042Z,100.00
2018-10-04T07:22:45.612Z,100.00
2018-10-04T07:25:14.204Z,100.00
2018-10-04T07:27:42.793Z,100.00
2018-10-04T07:30:11.390Z,100.00
2018-10-04T07:32:39.982Z,100.00
2018-10-04T07:35:08.557Z,100.00
2018-10-04T07:37:37.225Z,100.00
2018-10-04T07:40:06.221Z,100.00
2018-10-04T07:42:35.053Z,99.94
2018-10-04T07:45:03.576Z,99.91
2018-10-04T07:47:32.148Z,99.85
2018-10-04T07:50:00.746Z,98.64
2018-10-04T07:52:29.294Z,99.78
2018-10-04T07:54:57.857Z,98.69
2018-10-04T07:57:26.478Z,98.30
2018-10-04T07:59:55.036Z,97.98
2018-10-04T08:02:23.613Z,97.93
2018-10-04T08:04:52.160Z,97.89
2018-10-04T08:07:20.736Z,98.87
2018-10-04T08:09:49.308Z,98.96
2018-10-04T08:12:17.913Z,97.46
2018-10-04T08:14:46.765Z,97.48
2018-10-04T08:17:16.024Z,96.86
2018-10-04T08:19:44.971Z,96.01
2018-10-04T08:22:13.998Z,95.75
2018-10-04T08:24:42.839Z,96.78
2018-10-04T08:27:11.425Z,95.22
2018-10-04T08:29:40.073Z,94.92
2018-10-04T08:32:08.760Z,93.89
2018-10-04T08:34:37.544Z,93.83
2018-10-04T08:37:06.343Z,94.08
2018-10-04T08:39:34.889Z,94.06
2018-10-04T08:42:03.597Z,93.67
2018-10-04T08:44:32.141Z,93.03
2018-10-04T08:47:00.741Z,92.40
2018-10-04T08:49:29.319Z,91.98
2018-10-04T08:51:57.920Z,92.55
2018-10-04T08:54:33.291Z,91.75
2018-10-04T08:57:02.417Z,91.48
2018-10-04T08:59:31.101Z,90.54
2018-10-04T09:01:59.772Z,89.08
2018-10-04T09:04:28.412Z,88.95
2018-10-04T09:06:57.005Z,88.87
2018-10-04T09:09:25.592Z,88.73
2018-10-04T09:11:54.643Z,87.38
2018-10-04T09:14:23.288Z,86.40
2018-10-04T09:16:51.841Z,86.78
2018-10-04T09:19:20.429Z,86.45
2018-10-04T09:21:49.345Z,85.69
2018-10-04T09:24:17.917Z,85.47
2018-10-04T09:26:46.485Z,87.21
2018-10-04T09:29:15.137Z,87.19
2018-10-04T09:31:46.040Z,85.78
2018-10-04T09:34:14.642Z,84.42
2018-10-04T09:36:43.228Z,83.19
2018-10-04T09:39:12.743Z,80.34
2018-10-04T09:41:41.365Z,79.49
2018-10-04T09:44:10.693Z,79.98
2018-10-04T09:46:39.931Z,79.42
2018-10-04T09:49:08.536Z,79.98
2018-10-04T09:51:42.777Z,77.19
2018-10-04T09:54:15.807Z,79.11
2018-10-04T09:56:47.227Z,78.71
2018-10-04T09:59:15.944Z,79.92
2018-10-04T10:01:49.961Z,79.42
2018-10-04T10:04:18.844Z,77.63
2018-10-04T10:06:47.397Z,77.86
2018-10-04T10:09:16.252Z,75.00
2018-10-04T10:11:44.887Z,75.24
2018-10-04T10:14:13.757Z,75.04
2018-10-04T10:16:44.535Z,72.77
2018-10-04T10:19:13.639Z,71.50
2018-10-04T10:21:44.745Z,71.69
2018-10-04T10:24:16.272Z,71.62
2018-10-04T10:26:47.033Z,70.85
2018-10-04T10:29:15.623Z,73.05
2018-10-04T10:31:45.241Z,74.05
2018-10-04T10:34:16.052Z,69.99
2018-10-04T10:36:46.503Z,70.46
2018-10-04T10:39:15.155Z,70.60
2018-10-04T10:41:45.012Z,69.14
2018-10-04T10:44:14.406Z,68.97
2018-10-04T10:46:42.980Z,67.69
2018-10-04T10:49:13.021Z,67.77
2018-10-04T10:51:42.555Z,65.74
2018-10-04T10:54:12.498Z,66.91
2018-10-04T10:56:52.319Z,67.69
2018-10-04T10:59:21.424Z,65.38
2018-10-04T11:01:49.981Z,66.87
2018-10-04T11:04:18.553Z,64.73
2018-10-04T11:06:47.104Z,65.42
2018-10-04T11:09:16.934Z,65.95
2018-10-04T11:11:48.577Z,64.37
2018-10-04T11:14:17.268Z,63.63
2018-10-04T11:16:45.829Z,63.80
2018-10-04T11:19:15.377Z,64.08
2018-10-04T11:21:43.972Z,63.52
2018-10-04T11:24:12.611Z,63.73
2018-10-04T11:26:41.533Z,63.22
2018-10-04T11:29:10.340Z,62.42
2018-10-04T11:31:39.652Z,62.13
2018-10-04T11:34:08.241Z,64.33
2018-10-04T11:36:37.868Z,63.13
2018-10-04T11:39:10.129Z,61.66
2018-10-04T11:41:40.291Z,61.95
2018-10-04T11:44:16.801Z,62.30
2018-10-04T11:46:47.049Z,61.63
2018-10-04T11:49:18.248Z,61.91
2018-10-04T11:51:46.844Z,61.55
2018-10-04T11:54:15.438Z,62.43
2018-10-04T11:56:44.121Z,62.48
2018-10-04T11:59:12.961Z,62.11
2018-10-04T12:01:41.751Z,62.23
2018-10-04T12:04:10.265Z,61.11
2018-10-04T12:06:39.441Z,62.27
2018-10-04T12:09:08.884Z,61.88
2018-10-04T12:11:40.618Z,61.57
2018-10-04T12:14:09.487Z,61.59
2018-10-04T12:16:38.196Z,62.51
2018-10-04T12:19:07.885Z,61.64
2018-10-04T12:21:37.322Z,60.19
2018-10-04T12:24:17.466Z,60.14
2018-10-04T12:26:57.072Z,60.65
2018-10-04T12:29:42.955Z,59.64
2018-10-04T12:32:18.002Z,60.86
2018-10-04T12:34:47.048Z,60.01
2018-10-04T12:37:15.673Z,60.11
2018-10-04T12:39:44.317Z,60.03
2018-10-04T12:42:12.915Z,58.11
2018-10-04T12:44:41.495Z,60.15
2018-10-04T12:47:10.838Z,59.09
2018-10-04T12:49:39.397Z,60.09
2018-10-04T12:52:08.009Z,58.35
2018-10-04T12:54:36.758Z,59.00
2018-10-04T12:57:05.373Z,60.12
2018-10-04T12:59:33.921Z,60.53
2018-10-04T13:02:02.496Z,59.68
2018-10-04T13:04:31.052Z,59.79
2018-10-04T13:07:00.111Z,58.31
2018-10-04T13:09:28.497Z,57.19
2018-10-04T13:11:57.117Z,55.91
2018-10-04T13:14:25.689Z,56.20
2018-10-04T13:16:54.648Z,57.22
2018-10-04T13:19:26.234Z,57.11
2018-10-04T13:21:54.869Z,55.34
2018-10-04T13:24:23.684Z,55.08
2018-10-04T13:26:52.465Z,55.36
2018-10-04T13:29:21.548Z,54.08
2018-10-04T13:31:54.375Z,54.13
2018-10-04T13:34:23.039Z,54.88
2018-10-04T13:36:51.621Z,53.20
2018-10-04T13:39:20.539Z,53.81
2018-10-04T13:41:49.277Z,53.33
2018-10-04T13:44:20.744Z,53.56
2018-10-04T13:46:49.324Z,52.93
2018-10-04T13:49:17.928Z,52.99
2018-10-04T13:51:46.600Z,52.41
2018-10-04T13:54:15.149Z,52.94
2018-10-04T13:56:44.892Z,52.51
2018-10-04T13:59:13.523Z,51.83
2018-10-04T14:01:44.564Z,51.14
2018-10-04T14:04:13.528Z,52.14
2018-10-04T14:06:42.225Z,51.12
2018-10-04T14:09:10.904Z,51.59
2018-10-04T14:11:39.485Z,50.67
2018-10-04T14:14:08.132Z,51.23
2018-10-04T14:16:36.889Z,50.70
2018-10-04T14:19:06.446Z,50.87
2018-10-04T14:21:35.165Z,51.93
2018-10-04T14:24:04.047Z,50.62
2018-10-04T14:26:32.649Z,49.16
2018-10-04T14:29:01.228Z,49.21
2018-10-04T14:31:29.776Z,48.78
2018-10-04T14:33:58.389Z,48.79
2018-10-04T14:36:26.969Z,47.99
2018-10-04T14:38:55.914Z,48.17
2018-10-04T14:41:24.502Z,46.84
2018-10-04T14:43:53.082Z,46.28
2018-10-04T14:46:21.805Z,46.18
2018-10-04T14:48:51.831Z,44.28
2018-10-04T14:51:20.645Z,44.40
2018-10-04T14:53:49.277Z,43.76
2018-10-04T14:56:17.835Z,42.41
2018-10-04T14:58:46.419Z,42.00
2018-10-04T15:01:14.991Z,42.13
2018-10-04T15:03:43.653Z,40.45
2018-10-04T15:06:12.250Z,40.08
2018-10-04T15:08:40.852Z,42.21
2018-10-04T15:11:09.660Z,42.04
2018-10-04T15:13:38.775Z,42.40
2018-10-04T15:16:09.313Z,43.39
2018-10-04T15:18:39.154Z,42.33
2018-10-04T15:21:08.340Z,42.75
2018-10-04T15:23:38.894Z,43.39
2018-10-04T15:26:08.572Z,42.08
2018-10-04T15:28:37.280Z,41.48
2018-10-04T15:31:05.962Z,42.37
2018-10-04T15:33:34.560Z,41.87
2018-10-04T15:36:03.853Z,42.82
2018-10-04T15:38:33.276Z,42.20
2018-10-04T15:41:02.360Z,41.60
2018-10-04T15:43:32.126Z,41.90
2018-10-04T15:46:00.811Z,43.04
2018-10-04T15:48:29.929Z,42.88
2018-10-04T15:50:58.514Z,42.33
2018-10-04T15:53:27.386Z,43.47
2018-10-04T15:55:55.933Z,45.17
2018-10-04T15:58:24.808Z,45.69
2018-10-04T16:00:53.361Z,45.50
2018-10-04T16:03:22.721Z,44.75
2018-10-04T16:05:52.139Z,45.45
2018-10-04T16:08:20.713Z,45.68
2018-10-04T16:10:50.143Z,46.37
2018-10-04T16:13:19.646Z,47.03
2018-10-04T16:15:51.549Z,48.37
2018-10-04T16:18:20.156Z,49.49
2018-10-04T16:20:55.568Z,49.20
2018-10-04T16:23:24.864Z,51.00
2018-10-04T16:25:53.497Z,52.14
2018-10-04T16:28:22.692Z,53.19
2018-10-04T16:30:52.262Z,53.63
2018-10-04T16:33:21.841Z,55.53
2018-10-04T16:35:50.413Z,56.54
2018-10-04T16:38:23.712Z,57.20
2018-10-04T16:40:53.113Z,57.99
2018-10-04T16:43:23.487Z,59.19
2018-10-04T16:45:52.606Z,60.43
2018-10-04T16:48:32.198Z,60.34
2018-10-04T16:51:01.627Z,61.17
2018-10-04T16:53:31.540Z,61.58
2018-10-04T16:56:01.007Z,62.33
2018-10-04T16:58:29.739Z,62.93
2018-10-04T17:00:58.983Z,63.00
2018-10-04T17:03:28.165Z,63.54
2018-10-04T17:05:57.395Z,64.76
2018-10-04T17:08:29.570Z,64.81
2018-10-04T17:11:03.109Z,66.26
2018-10-04T17:13:35.236Z,66.92
2018-10-04T17:16:03.981Z,68.24
2018-10-04T17:18:43.861Z,69.31
2018-10-04T17:21:12.641Z,69.39
2018-10-04T17:23:41.444Z,70.76
2018-10-04T17:26:10.033Z,71.45
2018-10-04T17:28:38.605Z,72.21
2018-10-04T17:31:07.214Z,72.71
2018-10-04T17:33:35.756Z,74.29
2018-10-04T17:36:04.341Z,74.40
2018-10-04T17:38:37.865Z,74.19
2018-10-04T17:41:08.552Z,75.77
2018-10-04T17:43:37.105Z,76.82
2018-10-04T17:46:08.926Z,77.87
2018-10-04T17:48:37.550Z,78.63
2018-10-04T17:51:06.145Z,78.12
2018-10-04T17:53:34.765Z,80.15
2018-10-04T17:56:08.384Z,80.20
2018-10-04T17:58:41.568Z,81.06
2018-10-04T18:01:16.566Z,80.87
2018-10-04T18:03:50.216Z,81.38
2018-10-04T18:06:19.285Z,83.68
2018-10-04T18:08:47.840Z,82.62
2018-10-04T18:11:18.145Z,82.46
2018-10-04T18:13:47.888Z,85.45
2018-10-04T18:16:16.596Z,84.96
2018-10-04T18:18:45.194Z,85.38
2018-10-04T18:21:13.845Z,85.49
2018-10-04T18:23:42.433Z,85.25
2018-10-04T18:26:11.060Z,85.40
2018-10-04T18:28:39.658Z,85.98
2018-10-04T18:31:08.258Z,87.47
2018-10-04T18:33:36.844Z,87.25
2018-10-04T18:36:05.393Z,88.36
2018-10-04T18:38:34.142Z,88.16
2018-10-04T18:41:02.852Z,88.45
2018-10-04T18:43:33.073Z,89.41
2018-10-04T18:46:01.698Z,89.69
2018-10-04T18:48:30.277Z,90.30
2018-10-04T18:51:00.306Z,89.79
2018-10-04T18:53:31.517Z,89.90
2018-10-04T18:56:00.338Z,91.79
2018-10-04T18:58:29.321Z,95.05
2018-10-04T19:00:57.884Z,94.68
2018-10-04T19:03:26.488Z,94.74
2018-10-04T19:05:55.100Z,94.11
2018-10-04T19:08:23.683Z,93.72
2018-10-04T19:10:52.269Z,94.53
2018-10-04T19:13:20.873Z,91.19
2018-10-04T19:15:49.773Z,91.77
2018-10-04T19:18:18.396Z,91.38
2018-10-04T19:20:47.237Z,93.03
2018-10-04T19:23:15.833Z,92.90
2018-10-04T19:25:44.376Z,93.67
2018-10-04T19:28:15.969Z,92.85
2018-10-04T19:30:44.580Z,90.70
2018-10-04T19:33:13.158Z,90.75
2018-10-04T19:35:47.559Z,91.19
2018-10-04T19:38:17.124Z,91.42
2018-10-04T19:40:46.043Z,91.40
2018-10-04T19:43:20.230Z,91.32
2018-10-04T19:45:53.855Z,92.29
2018-10-04T19:48:33.651Z,92.82
2018-10-04T19:51:02.462Z,93.81
2018-10-04T19:53:31.127Z,93.37
2018-10-04T19:55:59.676Z,96.62
2018-10-04T19:58:28.326Z,96.98
2018-10-04T20:00:58.550Z,97.61
2018-10-04T20:03:27.300Z,98.92
2018-10-04T20:05:57.579Z,100.00
2018-10-04T20:08:29.474Z,100.00
2018-10-04T20:10:58.728Z,99.90
2018-10-04T20:13:28.626Z,100.00
2018-10-04T20:16:06.387Z,97.54
2018-10-04T20:18:42.557Z,97.32
2018-10-04T20:21:17.946Z,96.42
2018-10-04T20:23:51.307Z,94.66
2018-10-04T20:26:23.132Z,96.89
2018-10-04T20:28:56.460Z,95.94
2018-10-04T20:31:29.695Z,97.52
2018-10-04T20:34:07.824Z,96.10
2018-10-04T20:36:43.123Z,98.31
2018-10-04T20:39:15.572Z,99.15
2018-10-04T20:41:49.682Z,98.44
2018-10-04T20:44:22.826Z,98.86
2018-10-04T20:46:55.446Z,98.92
2018-10-04T20:49:29.147Z,98.20
2018-10-04T20:52:07.880Z,97.70
2018-10-04T20:54:43.372Z,99.15
2018-10-04T20:57:16.715Z,99.34
2018-10-04T20:59:51.299Z,98.38
2018-10-04T21:02:34.714Z,97.20
2018-10-04T21:05:08.713Z,98.00
2018-10-04T21:07:43.627Z,99.58
2018-10-04T21:10:15.984Z,98.61
2018-10-04T21:12:46.938Z,99.19
2018-10-04T21:15:21.005Z,97.44
2018-10-04T21:17:53.693Z,97.40
2018-10-04T21:20:27.736Z,96.45
2018-10-04T21:23:02.186Z,97.65
2018-10-04T21:25:35.229Z,96.88
2018-10-04T21:28:08.618Z,98.74
2018-10-04T21:30:41.813Z,99.57
2018-10-04T21:33:13.032Z,97.47
2018-10-04T21:35:46.294Z,96.55
2018-10-04T21:38:20.315Z,97.33
2018-10-04T21:40:53.906Z,98.62
2018-10-04T21:43:33.532Z,96.53
2018-10-04T21:46:08.939Z,98.70
2018-10-04T21:48:41.801Z,98.78
2018-10-04T21:51:15.472Z,98.14
2018-10-04T21:53:48.112Z,97.68
2018-10-04T21:56:20.970Z,96.17
2018-10-04T21:58:52.205Z,96.65
2018-10-04T22:01:24.970Z,95.98
2018-10-04T22:03:57.363Z,97.10
2018-10-04T22:06:31.424Z,100.00
2018-10-04T22:09:02.165Z,100.00
2018-10-04T22:11:33.730Z,100.00
2018-10-04T22:14:03.575Z,100.00
2018-10-04T22:16:34.858Z,100.00
2018-10-04T22:19:04.736Z,98.88
2018-10-04T22:21:35.841Z,99.70
2018-10-04T22:24:04.413Z,98.75
2018-10-04T22:26:35.409Z,100.00
2018-10-04T22:29:07.222Z,100.00
2018-10-04T22:31:35.864Z,99.09
2018-10-04T22:34:04.416Z,97.82
2018-10-04T22:36:33.020Z,99.04
2018-10-04T22:39:01.556Z,100.00
2018-10-04T22:41:30.140Z,100.00
2018-10-04T22:43:58.921Z,100.00
2018-10-04T22:46:27.497Z,100.00
2018-10-04T22:48:56.049Z,100.00
2018-10-04T22:51:24.676Z,100.00
2018-10-04T22:53:53.496Z,100.00
2018-10-04T22:56:22.060Z,99.32
2018-10-04T22:58:50.624Z,99.65
2018-10-04T23:01:19.213Z,100.00
2018-10-04T23:03:47.760Z,100.00
2018-10-04T23:06:16.360Z,100.00
2018-10-04T23:08:45.138Z,100.00
2018-10-04T23:11:13.716Z,100.00
2018-10-04T23:13:42.276Z,100.00
2018-10-04T23:16:16.157Z,100.00
2018-10-04T23:18:52.512Z,100.00
2018-10-04T23:21:27.176Z,100.00
2018-10-04T23:24:01.626Z,100.00
2018-10-04T23:26:34.895Z,100.00
2018-10-04T23:29:08.127Z,100.00
2018-10-04T23:31:44.007Z,100.00
2018-10-04T23:34:18.945Z,100.00
2018-10-04T23:36:54.426Z,99.02
2018-10-04T23:39:29.553Z,100.00
2018-10-04T23:42:04.529Z,100.00
2018-10-04T23:44:37.300Z,100.00
2018-10-04T23:47:06.057Z,100.00
2018-10-04T23:49:34.645Z,100.00
2018-10-04T23:52:03.317Z,100.00
2018-10-04T23:54:31.913Z,100.00
2018-10-04T23:57:00.480Z,99.97
2018-10-04T23:59:29.038Z,100.00
